Overview Statistics Trail Chart Weather Telemetry Raw packets
 

This is the latest recevied weather packets stored in our database for station/object IK8SUT-10. If no packets are shown the sender has not sent any weather packets the latest 10 day(s).

<< 2 3 4 5 6 7 8 >>
Time Temp. Humidity Pressure Rain* Wind** Luminosity Snow
1788524023 32.22° C 49% 1019.5 hPa - - - -
1788523123 32.22° C 48% 1019.6 hPa - - - -
1788522222 31.67° C 46% 1019.7 hPa - - - -
1788521321 31.67° C 45% 1019.8 hPa - - - -
1788520420 31.67° C 46% 1019.8 hPa - - - -
1788519519 31.67° C 45% 1019.9 hPa - - - -
1788518618 31.67° C 43% 1020 hPa - - - -
1788517718 31.67° C 44% 1020.1 hPa - - - -
1788516817 31.67° C 44% 1020.1 hPa - - - -
1788515916 31.67° C 44% 1020.1 hPa - - - -
1788515015 31.67° C 44% 1020.1 hPa - - - -
1788514114 31.11° C 45% 1020.2 hPa - - - -
1788513214 31.11° C 44% 1020.3 hPa - - - -
1788512313 31.11° C 38% 1020.3 hPa - - - -
1788511412 31.67° C 38% 1020.1 hPa - - - -
1788510532 31.11° C 38% 1020.2 hPa - - - -
1788509631 31.11° C 38% 1019.9 hPa - - - -
1788508730 31.11° C 37% 1019.9 hPa - - - -
1788507829 31.11° C 38% 1019.7 hPa - - - -
1788506928 30.56° C 38% 1019.7 hPa - - - -
1788506027 30.56° C 38% 1019.5 hPa - - - -
1788505139 30.56° C 39% 1019.4 hPa - - - -
1788504226 30.56° C 38% 1019.2 hPa - - - -
1788503325 30.56° C 38% 1019.2 hPa - - - -
1788502424 30° C 38% 1019.4 hPa - - - -

* Rain since midnight (hover to see other rain measurements)
** Current wind speed in m/s (hover to see current wind gust speed)